createdAt,value
2022-08-10T00:00:36.034Z,70.70
2022-08-10T00:03:03.088Z,70.60
2022-08-10T00:05:43.170Z,70.60
2022-08-10T00:08:22.543Z,70.60
2022-08-10T00:10:53.494Z,70.80
2022-08-10T00:13:21.048Z,70.80
2022-08-10T00:15:53.448Z,70.90
2022-08-10T00:18:35.125Z,70.90
2022-08-10T00:21:05.340Z,71.00
2022-08-10T00:23:32.630Z,71.10
2022-08-10T00:25:59.564Z,71.20
2022-08-10T00:28:26.525Z,71.20
2022-08-10T00:30:53.702Z,71.30
2022-08-10T00:33:21.090Z,71.40
2022-08-10T00:35:48.836Z,72.10
2022-08-10T00:38:15.804Z,71.30
2022-08-10T00:40:42.835Z,71.30
2022-08-10T00:43:09.890Z,71.30
2022-08-10T00:45:37.045Z,71.50
2022-08-10T00:48:04.429Z,71.50
2022-08-10T00:50:34.195Z,71.60
2022-08-10T00:53:05.232Z,71.60
2022-08-10T00:55:32.502Z,71.50
2022-08-10T00:58:19.511Z,71.50
2022-08-10T01:00:47.847Z,71.40
2022-08-10T01:03:15.469Z,71.60
2022-08-10T01:06:20.671Z,71.80
2022-08-10T01:09:06.586Z,71.80
2022-08-10T01:12:38.064Z,71.80
2022-08-10T01:14:49.640Z,71.80
2022-08-10T01:17:16.692Z,71.90
2022-08-10T01:19:46.560Z,71.90
2022-08-10T01:22:16.302Z,71.90
2022-08-10T01:25:01.558Z,72.10
2022-08-10T01:27:40.697Z,72.90
2022-08-10T01:30:08.037Z,72.20
2022-08-10T01:32:50.223Z,72.20
2022-08-10T01:35:19.961Z,72.30
2022-08-10T01:37:52.233Z,72.30
2022-08-10T01:40:23.122Z,72.30
2022-08-10T01:42:50.558Z,72.40
2022-08-10T01:45:18.647Z,72.40
2022-08-10T01:48:06.365Z,72.40
2022-08-10T01:50:59.722Z,72.40
2022-08-10T01:53:40.855Z,72.40
2022-08-10T01:56:10.989Z,72.40
2022-08-10T01:58:38.640Z,72.50
2022-08-10T02:01:07.544Z,72.60
2022-08-10T02:03:35.793Z,72.60
2022-08-10T02:06:24.297Z,72.60
2022-08-10T02:09:05.698Z,72.70
2022-08-10T02:12:05.251Z,72.70
2022-08-10T02:14:22.759Z,72.90
2022-08-10T02:16:50.725Z,72.80
2022-08-10T02:19:18.747Z,73.00
2022-08-10T02:22:37.440Z,72.80
2022-08-10T02:24:34.078Z,72.90
2022-08-10T02:27:00.940Z,73.10
2022-08-10T02:29:30.269Z,73.00
2022-08-10T02:31:57.243Z,73.00
2022-08-10T02:34:24.938Z,73.10
2022-08-10T02:36:53.958Z,73.10
2022-08-10T02:39:21.890Z,73.00
2022-08-10T02:45:01.340Z,73.10
2022-08-10T02:45:20.986Z,73.10
2022-08-10T02:47:58.074Z,73.30
2022-08-10T02:50:25.030Z,73.20
2022-08-10T02:52:57.339Z,73.40
2022-08-10T02:55:32.567Z,73.20
2022-08-10T02:58:16.923Z,73.20
2022-08-10T03:00:49.880Z,73.40
2022-08-10T03:03:25.148Z,73.40
2022-08-10T03:05:57.021Z,73.40
2022-08-10T03:08:26.053Z,73.40
2022-08-10T03:10:54.927Z,73.50
2022-08-10T03:13:22.531Z,73.60
2022-08-10T03:15:50.385Z,73.40
2022-08-10T03:18:17.950Z,73.50
2022-08-10T03:20:45.262Z,73.40
2022-08-10T03:23:17.623Z,73.40
2022-08-10T03:25:53.727Z,73.40
2022-08-10T03:28:26.336Z,73.50
2022-08-10T03:30:53.847Z,73.40
2022-08-10T03:33:22.229Z,73.40
2022-08-10T03:36:40.241Z,73.40
2022-08-10T03:38:36.971Z,73.40
2022-08-10T03:41:05.255Z,73.50
2022-08-10T03:43:34.709Z,73.40
2022-08-10T03:46:05.607Z,73.50
2022-08-10T03:48:48.477Z,73.50
2022-08-10T03:51:17.464Z,73.60
2022-08-10T03:54:05.426Z,73.60
2022-08-10T03:56:33.058Z,73.60
2022-08-10T03:59:00.864Z,73.60
2022-08-10T04:02:43.693Z,73.60
2022-08-10T04:04:20.876Z,73.60
2022-08-10T04:06:54.634Z,73.70
2022-08-10T04:09:42.859Z,73.70
2022-08-10T04:12:16.339Z,73.70
2022-08-10T04:14:50.965Z,73.70
2022-08-10T04:17:56.978Z,73.80
2022-08-10T04:20:10.797Z,73.70
2022-08-10T04:22:38.136Z,73.70
2022-08-10T04:25:05.557Z,73.70
2022-08-10T04:27:32.560Z,73.90
2022-08-10T04:29:59.793Z,74.10
2022-08-10T04:32:28.022Z,73.90
2022-08-10T04:34:55.583Z,74.00
2022-08-10T04:37:23.425Z,74.00
2022-08-10T04:39:50.767Z,74.20
2022-08-10T04:42:18.435Z,74.10
2022-08-10T04:44:46.731Z,74.00
2022-08-10T04:47:13.582Z,74.00
2022-08-10T04:49:55.976Z,74.10
2022-08-10T04:52:25.250Z,74.00
2022-08-10T04:54:52.313Z,74.00
2022-08-10T04:57:19.935Z,74.10
2022-08-10T04:59:46.769Z,74.20
2022-08-10T05:02:31.417Z,74.20
2022-08-10T05:04:59.327Z,74.20
2022-08-10T05:07:26.371Z,75.00
2022-08-10T05:10:02.996Z,74.20
2022-08-10T05:12:35.911Z,74.30
2022-08-10T05:15:08.131Z,74.30
2022-08-10T05:17:36.115Z,74.30
2022-08-10T05:20:07.092Z,74.40
2022-08-10T05:22:39.477Z,74.40
2022-08-10T05:25:08.858Z,74.60
2022-08-10T05:27:36.005Z,74.60
2022-08-10T05:30:04.724Z,74.60
2022-08-10T05:32:55.219Z,74.70
2022-08-10T05:35:20.309Z,74.60
2022-08-10T05:38:10.158Z,74.70
2022-08-10T05:40:46.142Z,74.80
2022-08-10T05:43:18.778Z,75.20
2022-08-10T05:46:19.076Z,75.10
2022-08-10T05:48:54.899Z,75.30
2022-08-10T05:51:21.805Z,75.30
2022-08-10T05:54:02.863Z,75.20
2022-08-10T05:56:55.642Z,75.30
2022-08-10T06:00:33.148Z,75.30
2022-08-10T06:02:33.485Z,75.40
2022-08-10T06:04:57.195Z,75.50
2022-08-10T06:07:27.480Z,75.70
2022-08-10T06:09:59.565Z,75.70
2022-08-10T06:12:37.555Z,75.90
2022-08-10T06:15:21.345Z,76.20
2022-08-10T06:17:59.043Z,75.90
2022-08-10T06:20:35.363Z,76.10
2022-08-10T06:23:04.133Z,76.20
2022-08-10T06:26:10.065Z,76.30
2022-08-10T06:28:18.720Z,76.40
2022-08-10T06:30:47.257Z,76.60
2022-08-10T06:33:14.770Z,76.70
2022-08-10T06:35:42.423Z,77.20
2022-08-10T06:38:09.651Z,77.60
2022-08-10T06:40:38.367Z,77.80
2022-08-10T06:43:06.679Z,77.90
2022-08-10T06:45:37.212Z,78.70
2022-08-10T06:48:21.104Z,78.10
2022-08-10T06:50:58.751Z,79.20
2022-08-10T06:53:53.434Z,79.20
2022-08-10T06:56:20.039Z,79.20
2022-08-10T06:59:21.332Z,79.50
2022-08-10T07:01:58.580Z,79.30
2022-08-10T07:04:32.258Z,81.50
2022-08-10T07:07:05.354Z,80.20
2022-08-10T07:09:33.399Z,80.40
2022-08-10T07:12:07.776Z,80.90
2022-08-10T07:14:40.785Z,80.20
2022-08-10T07:17:15.869Z,80.60
2022-08-10T07:19:50.444Z,80.60
2022-08-10T07:23:26.890Z,80.40
2022-08-10T07:25:07.856Z,80.30
2022-08-10T07:27:58.345Z,80.30
2022-08-10T07:30:22.192Z,80.80
2022-08-10T07:32:51.026Z,80.60
2022-08-10T07:35:18.957Z,80.50
2022-08-10T07:37:49.556Z,80.00
2022-08-10T07:40:19.861Z,80.00
2022-08-10T07:42:52.314Z,80.00
2022-08-10T07:45:19.406Z,80.20
2022-08-10T07:47:55.020Z,79.80
2022-08-10T07:50:23.067Z,79.70
2022-08-10T07:52:51.820Z,79.40
2022-08-10T07:56:02.142Z,79.50
2022-08-10T07:58:07.743Z,79.00
2022-08-10T08:00:35.288Z,79.00
2022-08-10T08:03:03.268Z,79.00
2022-08-10T08:05:57.457Z,79.00
2022-08-10T08:08:18.261Z,79.00
2022-08-10T08:10:45.687Z,78.90
2022-08-10T08:13:13.218Z,78.50
2022-08-10T08:16:17.901Z,78.10
2022-08-10T08:18:28.904Z,77.50
2022-08-10T08:20:56.036Z,77.40
2022-08-10T08:24:05.200Z,77.40
2022-08-10T08:26:15.510Z,77.20
2022-08-10T08:28:43.611Z,76.90
2022-08-10T08:31:10.771Z,76.70
2022-08-10T08:33:41.954Z,76.60
2022-08-10T08:36:11.110Z,76.90
2022-08-10T08:38:38.339Z,76.30
2022-08-10T08:41:28.697Z,76.10
2022-08-10T08:44:01.970Z,76.00
2022-08-10T08:46:39.617Z,76.20
2022-08-10T08:49:06.796Z,75.50
2022-08-10T08:52:09.357Z,75.50
2022-08-10T08:54:48.379Z,75.10
2022-08-10T08:57:49.074Z,75.20
2022-08-10T09:00:06.075Z,75.30
2022-08-10T09:02:43.906Z,75.10
2022-08-10T09:05:31.353Z,75.50
2022-08-10T09:08:21.562Z,75.60
2022-08-10T09:10:54.837Z,75.60
2022-08-10T09:13:29.727Z,75.80
2022-08-10T09:16:02.807Z,75.40
2022-08-10T09:18:51.975Z,75.50
2022-08-10T09:21:28.532Z,75.40
2022-08-10T09:24:22.018Z,75.00
2022-08-10T09:26:50.331Z,75.80
2022-08-10T09:29:25.649Z,75.70
2022-08-10T09:36:19.794Z,75.30
2022-08-10T09:36:19.794Z,75.70
2022-08-10T09:38:01.780Z,75.60
2022-08-10T09:41:00.448Z,77.20
2022-08-10T09:43:36.542Z,78.50
2022-08-10T09:46:06.556Z,79.20
2022-08-10T09:48:41.878Z,81.90
2022-08-10T09:54:15.007Z,78.30
2022-08-10T09:57:02.999Z,79.00
2022-08-10T10:00:00.095Z,80.70
2022-08-10T10:02:49.044Z,81.00
2022-08-10T10:05:25.481Z,78.30
2022-08-10T10:07:56.721Z,78.70
2022-08-10T10:10:27.362Z,76.00
2022-08-10T10:13:05.594Z,75.50
2022-08-10T10:15:43.578Z,71.90
2022-08-10T10:18:11.691Z,73.20
2022-08-10T10:20:57.596Z,71.90
2022-08-10T10:23:55.265Z,69.60
2022-08-10T10:26:30.093Z,68.70
2022-08-10T10:31:50.729Z,67.80
2022-08-10T10:34:58.736Z,61.40
2022-08-10T10:38:01.128Z,62.50
2022-08-10T10:40:14.662Z,63.00
2022-08-10T10:42:45.525Z,62.00
2022-08-10T10:45:15.611Z,61.30
2022-08-10T10:47:48.798Z,58.20
2022-08-10T10:50:19.509Z,59.60
2022-08-10T10:53:05.079Z,58.70
2022-08-10T10:56:15.516Z,58.70
2022-08-10T10:58:28.302Z,59.10
2022-08-10T11:01:07.632Z,55.40
2022-08-10T11:03:36.044Z,57.40
2022-08-10T11:06:23.593Z,56.30
2022-08-10T11:09:00.458Z,56.00
2022-08-10T11:12:00.162Z,55.30
2022-08-10T11:14:30.253Z,56.10
2022-08-10T11:17:00.527Z,54.60
2022-08-10T11:20:01.327Z,54.80
2022-08-10T11:22:30.431Z,53.00
2022-08-10T11:25:06.979Z,53.40
2022-08-10T11:27:42.082Z,53.90
2022-08-10T11:30:12.790Z,53.20
2022-08-10T11:32:51.794Z,53.10
2022-08-10T11:35:34.964Z,52.80
2022-08-10T11:38:28.645Z,52.70
2022-08-10T11:42:05.514Z,51.70
2022-08-10T11:44:12.343Z,51.60
2022-08-10T11:46:53.980Z,49.40
2022-08-10T11:49:38.077Z,50.40
2022-08-10T11:52:16.758Z,48.70
2022-08-10T11:54:47.193Z,49.40
2022-08-10T11:57:18.630Z,49.40
2022-08-10T11:59:57.850Z,48.20
2022-08-10T12:02:29.653Z,46.20
2022-08-10T12:05:15.492Z,45.90
2022-08-10T12:10:07.804Z,46.60
2022-08-10T12:10:31.614Z,45.10
2022-08-10T12:13:07.732Z,46.20
2022-08-10T12:15:55.921Z,46.20
2022-08-10T12:18:32.768Z,46.30
2022-08-10T12:21:06.986Z,45.20
2022-08-10T12:23:39.340Z,45.20
2022-08-10T12:26:19.306Z,46.30
2022-08-10T12:29:08.934Z,44.60
2022-08-10T12:31:41.321Z,41.30
2022-08-10T12:34:10.195Z,46.10
2022-08-10T12:36:42.345Z,46.20
2022-08-10T12:39:30.352Z,45.30
2022-08-10T12:42:02.962Z,43.70
2022-08-10T12:44:42.250Z,45.00
2022-08-10T12:47:14.504Z,43.20
2022-08-10T12:50:29.321Z,45.40
2022-08-10T12:53:13.809Z,43.80
2022-08-10T12:55:41.592Z,42.80
2022-08-10T12:58:58.144Z,45.10
2022-08-10T13:01:16.226Z,44.30
2022-08-10T13:04:20.822Z,44.40
2022-08-10T13:06:46.745Z,43.40
2022-08-10T13:09:14.992Z,43.40
2022-08-10T13:12:39.414Z,42.80
2022-08-10T13:15:25.446Z,42.60
2022-08-10T13:18:18.278Z,41.90
2022-08-10T13:20:54.969Z,40.60
2022-08-10T13:23:25.046Z,41.00
2022-08-10T13:25:52.375Z,41.20
2022-08-10T13:28:36.542Z,41.60
2022-08-10T13:31:07.301Z,39.40
2022-08-10T13:34:39.192Z,41.00
2022-08-10T13:36:27.979Z,39.60
2022-08-10T13:38:57.198Z,39.70
2022-08-10T13:41:29.792Z,39.90
2022-08-10T13:43:58.273Z,40.00
2022-08-10T13:46:25.621Z,39.90
2022-08-10T13:49:00.427Z,40.50
2022-08-10T13:51:57.608Z,40.60
2022-08-10T13:54:16.798Z,41.00
2022-08-10T13:56:44.891Z,41.30
2022-08-10T13:59:16.341Z,42.40
2022-08-10T14:01:50.905Z,42.10
2022-08-10T14:04:18.913Z,41.70
2022-08-10T14:07:04.611Z,43.00
2022-08-10T14:09:32.704Z,42.00
2022-08-10T14:12:00.906Z,42.30
2022-08-10T14:14:30.666Z,44.40
2022-08-10T14:16:58.560Z,44.60
2022-08-10T14:19:32.950Z,43.70
2022-08-10T14:22:00.814Z,44.30
2022-08-10T14:24:31.633Z,43.00
2022-08-10T14:27:05.065Z,44.10
2022-08-10T14:29:33.649Z,43.60
2022-08-10T14:32:02.420Z,44.90
2022-08-10T14:36:19.444Z,43.00
2022-08-10T14:37:37.531Z,43.00
2022-08-10T14:40:09.571Z,45.50
2022-08-10T14:42:45.885Z,46.00
2022-08-10T14:45:24.030Z,45.20
2022-08-10T14:47:59.635Z,46.50
2022-08-10T14:50:32.377Z,45.70
2022-08-10T14:53:27.113Z,45.10
2022-08-10T14:56:03.644Z,44.80
2022-08-10T14:58:33.558Z,46.30
2022-08-10T15:01:01.983Z,45.40
2022-08-10T15:04:02.432Z,46.70
2022-08-10T15:06:21.246Z,46.80
2022-08-10T15:09:27.198Z,47.60
2022-08-10T15:12:15.900Z,46.80
2022-08-10T15:14:46.060Z,45.70
2022-08-10T15:17:17.212Z,45.60
2022-08-10T15:20:02.423Z,45.80
2022-08-10T15:22:37.522Z,47.00
2022-08-10T15:25:18.363Z,47.90
2022-08-10T15:27:54.416Z,48.50
2022-08-10T15:30:31.601Z,47.50
2022-08-10T15:33:21.238Z,48.40
2022-08-10T15:36:26.061Z,48.80
2022-08-10T15:39:04.910Z,48.80
2022-08-10T15:41:59.290Z,48.90
2022-08-10T15:44:34.690Z,49.30
2022-08-10T15:47:04.502Z,49.40
2022-08-10T15:49:36.033Z,49.30
2022-08-10T15:52:04.319Z,48.40
2022-08-10T15:54:39.038Z,49.00
2022-08-10T15:57:11.277Z,48.50
2022-08-10T15:59:43.422Z,48.90
2022-08-10T16:02:17.565Z,49.10
2022-08-10T16:04:53.655Z,48.10
2022-08-10T16:07:24.093Z,48.90
2022-08-10T16:10:25.534Z,49.70
2022-08-10T16:13:50.994Z,50.00
2022-08-10T16:15:54.019Z,49.10
2022-08-10T16:18:25.632Z,50.10
2022-08-10T16:20:55.495Z,50.30
2022-08-10T16:23:27.209Z,49.80
2022-08-10T16:25:59.289Z,49.10
2022-08-10T16:28:32.104Z,50.20
2022-08-10T16:31:04.656Z,50.20
2022-08-10T16:33:54.048Z,50.40
2022-08-10T16:36:21.276Z,49.90
2022-08-10T16:38:53.200Z,48.90
2022-08-10T16:42:03.979Z,49.50
2022-08-10T16:44:15.835Z,48.20
2022-08-10T16:46:45.200Z,50.00
2022-08-10T16:49:13.851Z,49.00
2022-08-10T16:51:44.973Z,49.20
2022-08-10T16:54:14.626Z,50.30
2022-08-10T16:56:48.944Z,50.20
2022-08-10T16:59:21.123Z,49.70
2022-08-10T17:01:54.258Z,50.20
2022-08-10T17:04:22.473Z,50.50
2022-08-10T17:06:56.115Z,50.40
2022-08-10T17:09:29.487Z,50.70
2022-08-10T17:11:58.390Z,51.00
2022-08-10T17:14:27.399Z,51.20
2022-08-10T17:17:00.592Z,51.00
2022-08-10T17:19:30.022Z,51.20
2022-08-10T17:21:58.129Z,51.00
2022-08-10T17:24:30.376Z,51.40
2022-08-10T17:26:58.355Z,51.40
2022-08-10T17:29:57.672Z,51.20
2022-08-10T17:32:23.125Z,50.90
2022-08-10T17:34:53.452Z,50.80
2022-08-10T17:37:22.944Z,50.20
2022-08-10T17:39:55.273Z,50.70
2022-08-10T17:42:23.656Z,51.60
2022-08-10T17:44:52.916Z,51.60
2022-08-10T17:47:23.665Z,51.90
2022-08-10T17:49:56.914Z,51.70
2022-08-10T17:52:25.208Z,50.70
2022-08-10T17:54:57.169Z,51.60
2022-08-10T17:57:25.358Z,52.00
2022-08-10T17:59:52.906Z,51.70
2022-08-10T18:02:23.331Z,51.50
2022-08-10T18:04:52.126Z,51.00
2022-08-10T18:07:23.438Z,51.00
2022-08-10T18:09:54.947Z,51.70
2022-08-10T18:12:36.284Z,52.10
2022-08-10T18:15:08.420Z,52.10
2022-08-10T18:17:40.917Z,52.20
2022-08-10T18:20:08.836Z,51.80
2022-08-10T18:22:53.627Z,51.60
2022-08-10T18:25:22.364Z,51.60
2022-08-10T18:28:04.373Z,51.60
2022-08-10T18:30:36.229Z,52.20
2022-08-10T18:33:04.653Z,51.50
2022-08-10T18:35:35.101Z,52.00
2022-08-10T18:38:03.118Z,52.10
2022-08-10T18:40:36.251Z,52.30
2022-08-10T18:44:02.790Z,51.80
2022-08-10T18:45:57.127Z,52.10
2022-08-10T18:48:26.997Z,52.30
2022-08-10T18:50:57.582Z,52.40
2022-08-10T18:53:24.434Z,52.30
2022-08-10T18:56:10.115Z,52.30
2022-08-10T18:58:44.392Z,52.20
2022-08-10T19:01:17.714Z,52.60
2022-08-10T19:03:54.068Z,52.50
2022-08-10T19:06:39.956Z,52.70
2022-08-10T19:09:46.062Z,52.50
2022-08-10T19:12:30.222Z,51.40
2022-08-10T19:15:18.687Z,51.80
2022-08-10T19:18:05.811Z,52.30
2022-08-10T19:20:52.165Z,52.60
2022-08-10T19:23:22.197Z,52.70
2022-08-10T19:26:40.849Z,52.70
2022-08-10T19:28:47.364Z,52.70
2022-08-10T19:31:22.685Z,52.90
2022-08-10T19:34:11.912Z,52.90
2022-08-10T19:36:42.384Z,52.80
2022-08-10T19:39:17.808Z,52.80
2022-08-10T19:41:54.291Z,52.50
2022-08-10T19:44:38.701Z,52.50
2022-08-10T19:47:05.725Z,52.00
2022-08-10T19:49:51.890Z,52.90
2022-08-10T19:52:25.070Z,52.90
2022-08-10T19:55:18.304Z,53.00
2022-08-10T19:58:01.204Z,52.80
2022-08-10T20:00:37.341Z,52.00
2022-08-10T20:03:07.511Z,52.30
2022-08-10T20:05:41.074Z,52.80
2022-08-10T20:08:31.814Z,52.40
2022-08-10T20:11:03.536Z,52.90
2022-08-10T20:13:54.304Z,51.90
2022-08-10T20:16:22.824Z,51.80
2022-08-10T20:19:08.336Z,52.30
2022-08-10T20:21:54.742Z,52.10
2022-08-10T20:24:40.577Z,52.40
2022-08-10T20:28:00.537Z,52.60
2022-08-10T20:30:12.944Z,52.90
2022-08-10T20:32:48.897Z,52.70
2022-08-10T20:35:24.309Z,52.70
2022-08-10T20:38:03.415Z,52.90
2022-08-10T20:40:41.900Z,52.80
2022-08-10T20:43:11.786Z,53.10
2022-08-10T20:46:07.596Z,53.00
2022-08-10T20:48:48.914Z,53.00
2022-08-10T20:51:22.934Z,53.20
2022-08-10T20:53:53.805Z,53.00
2022-08-10T20:56:26.620Z,53.20
2022-08-10T20:58:53.477Z,53.20
2022-08-10T21:01:23.048Z,54.00
2022-08-10T21:04:13.517Z,53.20
2022-08-10T21:06:49.683Z,53.50
2022-08-10T21:09:34.634Z,53.50
2022-08-10T21:12:01.515Z,53.80
2022-08-10T21:14:37.226Z,53.80
2022-08-10T21:17:22.864Z,53.90
2022-08-10T21:22:40.675Z,54.10
2022-08-10T21:25:17.584Z,54.20
2022-08-10T21:27:46.916Z,54.20
2022-08-10T21:30:15.666Z,54.30
2022-08-10T21:32:43.946Z,54.40
2022-08-10T21:35:38.386Z,54.50
2022-08-10T21:38:26.636Z,54.50
2022-08-10T21:41:18.100Z,54.60
2022-08-10T21:44:02.490Z,54.70
2022-08-10T21:46:58.955Z,54.70
2022-08-10T21:50:07.620Z,54.80
2022-08-10T21:53:04.305Z,55.40
2022-08-10T21:56:02.563Z,55.60
2022-08-10T21:58:52.928Z,55.60
2022-08-10T22:01:40.722Z,55.40
2022-08-10T22:04:26.409Z,55.30
2022-08-10T22:07:13.852Z,55.20
2022-08-10T22:10:02.264Z,55.20
2022-08-10T22:12:55.452Z,55.30
2022-08-10T22:16:03.919Z,55.40
2022-08-10T22:19:01.364Z,55.50
2022-08-10T22:21:48.538Z,55.60
2022-08-10T22:24:49.226Z,55.70
2022-08-10T22:27:47.375Z,55.60
2022-08-10T22:30:37.168Z,55.60
2022-08-10T22:31:24.473Z,54.00
2022-08-10T22:33:41.686Z,55.60
2022-08-10T22:36:46.135Z,55.70
2022-08-10T22:40:11.474Z,55.90
2022-08-10T22:43:10.428Z,56.00
2022-08-10T22:46:08.908Z,55.90
2022-08-10T22:48:59.406Z,56.00
2022-08-10T22:51:34.585Z,56.10
2022-08-10T22:54:39.681Z,56.20
2022-08-10T22:57:31.064Z,56.30
2022-08-10T22:59:59.144Z,56.30
2022-08-10T23:02:34.295Z,56.50
2022-08-10T23:05:08.471Z,56.50
2022-08-10T23:07:37.554Z,56.50
2022-08-10T23:10:08.376Z,56.70
2022-08-10T23:12:41.800Z,56.70
2022-08-10T23:15:35.460Z,56.90
2022-08-10T23:18:23.235Z,56.90
2022-08-10T23:20:50.864Z,56.90
2022-08-10T23:23:23.698Z,57.00
2022-08-10T23:25:57.016Z,57.10
2022-08-10T23:28:38.830Z,57.20
2022-08-10T23:31:14.645Z,57.20
2022-08-10T23:33:42.838Z,57.20
2022-08-10T23:36:33.976Z,57.30
2022-08-10T23:39:25.752Z,57.30
2022-08-10T23:41:53.853Z,57.50
2022-08-10T23:44:23.142Z,57.60
2022-08-10T23:46:50.266Z,57.60
2022-08-10T23:49:18.925Z,57.60
2022-08-10T23:51:55.827Z,57.70
2022-08-10T23:54:24.289Z,57.80
2022-08-10T23:56:54.434Z,57.90
2022-08-10T23:59:23.054Z,57.90
